Time;durP1;ratioP1;P1;durP2;ratioP2;P2;SDS_P1;SDS_P2;PMS_P1;PMS_P2;Temp;Humidity;BMP_temperature;BMP_pressure;BME280_temperature;BME280_humidity;BME280_pressure;Samples;Min_cycle;Max_cycle;Signal;HPM_P1;HPM_P2
2022/11/25 00:00:33;;;;;;;;;;;;;;;;;;5033888;28;20007;-40
2022/11/25 00:02:58;;;;;;;;;;;;;;;;;;5033863;28;19905;-40
2022/11/25 00:05:23;;;;;;;;;;;;;;;;;;5034111;28;19944;-40
2022/11/25 00:07:49;;;;;;;;;;;;;;;;;;5033952;28;20355;-40
2022/11/25 00:10:14;;;;;;;;;;;;;;;;;;5033799;28;20327;-40
2022/11/25 00:12:39;;;;;;;;;;;;;;;;;;5033781;28;19909;-40
2022/11/25 00:15:04;;;;;;;;;;;;;;;;;;5032887;28;19912;-40
2022/11/25 00:17:30;;;;;;;;;;;;;;;;;;5033516;28;19963;-40
2022/11/25 00:19:55;;;;;;;;;;;;;;;;;;5033514;28;20359;-40
2022/11/25 00:22:20;;;;;;;;;;;;;;;;;;5032279;28;19948;-40
2022/11/25 00:24:45;;;;;;;;;;;;;;;;;;5033759;28;19909;-40
2022/11/25 00:27:11;;;;;;;;;;;;;;;;;;5033608;28;19905;-40
2022/11/25 00:29:36;;;;;;;;;;;;;;;;;;5033735;28;19913;-40
2022/11/25 00:32:02;;;;;;;;;;;;;;;;;;5033364;28;19913;-40
2022/11/25 00:34:31;;;;;;;;;;;;;;;;;;5033497;28;19959;-40
2022/11/25 00:36:56;;;;;;;;;;;;;;;;;;5033415;28;20328;-40
2022/11/25 00:39:23;;;;;;;;;;;;;;;;;;5031883;28;19909;-40
2022/11/25 00:44:39;;;;;;;;;;;;;;;;;;5031775;28;19923;-40
2022/11/25 00:47:04;;;;;;;;;;;;;;;;;;5031809;28;20383;-40
2022/11/25 00:49:29;;;;;;;;;;;;;;;;;;5032895;28;19921;-41
2022/11/25 00:51:55;;;;;;;;;;;;;;;;;;5033113;28;19909;-40
2022/11/25 00:54:20;;;;;;;;;;;;;;;;;;5032838;28;19909;-40
2022/11/25 00:56:45;;;;;;;;;;;;;;;;;;5033315;28;20450;-40
2022/11/25 00:59:11;;;;;;;;;;;;;;;;;;5031672;28;19905;-40
2022/11/25 01:01:36;;;;;;;;;;;;;;;;;;5031386;28;19921;-40
2022/11/25 01:04:01;;;;;;;;;;;;;;;;;;5032833;28;19916;-40
2022/11/25 01:06:27;;;;;;;;;;;;;;;;;;5032684;28;19909;-42
2022/11/25 01:08:52;;;;;;;;;;;;;;;;;;5032682;28;19944;-40
2022/11/25 01:11:17;;;;;;;;;;;;;;;;;;5031401;28;20299;-40
2022/11/25 01:13:43;;;;;;;;;;;;;;;;;;5032512;28;19912;-40
2022/11/25 01:16:08;;;;;;;;;;;;;;;;;;5032651;28;19917;-40
2022/11/25 01:18:33;;;;;;;;;;;;;;;;;;5032522;28;19923;-41
2022/11/25 01:20:58;;;;;;;;;;;;;;;;;;5031138;28;19995;-40
2022/11/25 01:23:24;;;;;;;;;;;;;;;;;;5031131;28;19905;-40
2022/11/25 01:25:51;;;;;;;;;;;;;;;;;;5032668;28;19912;-40
2022/11/25 01:28:16;;;;;;;;;;;;;;;;;;5032246;28;20525;-40
2022/11/25 01:30:42;;;;;;;;;;;;;;;;;;5031500;28;19915;-40
2022/11/25 01:33:07;;;;;;;;;;;;;;;;;;5032259;28;19912;-40
2022/11/25 01:35:32;;;;;;;;;;;;;;;;;;5030888;28;19909;-41
2022/11/25 01:37:57;;;;;;;;;;;;;;;;;;5032234;28;19913;-40
2022/11/25 01:40:23;;;;;;;;;;;;;;;;;;5030779;28;20329;-40
2022/11/25 01:42:48;;;;;;;;;;;;;;;;;;5032052;28;19963;-40
2022/11/25 01:45:13;;;;;;;;;;;;;;;;;;5030809;28;19988;-40
2022/11/25 01:47:39;;;;;;;;;;;;;;;;;;5032152;28;19905;-41
2022/11/25 01:50:04;;;;;;;;;;;;;;;;;;5030658;28;19921;-40
2022/11/25 01:52:29;;;;;;;;;;;;;;;;;;5032197;28;19931;-40
2022/11/25 01:54:55;;;;;;;;;;;;;;;;;;5032127;28;19955;-40
2022/11/25 01:57:20;;;;;;;;;;;;;;;;;;5030539;28;19909;-40
2022/11/25 01:59:45;;;;;;;;;;;;;;;;;;5030728;28;19960;-40
2022/11/25 02:02:11;;;;;;;;;;;;;;;;;;5030609;28;19964;-40
2022/11/25 02:04:36;;;;;;;;;;;;;;;;;;5030411;28;19913;-40
2022/11/25 02:07:01;;;;;;;;;;;;;;;;;;5030607;28;20417;-41
2022/11/25 02:09:26;;;;;;;;;;;;;;;;;;5032027;28;19909;-40
2022/11/25 02:11:52;;;;;;;;;;;;;;;;;;5030444;28;19905;-40
2022/11/25 02:14:17;;;;;;;;;;;;;;;;;;5030689;28;19909;-41
2022/11/25 02:16:42;;;;;;;;;;;;;;;;;;5032050;28;19905;-39
2022/11/25 02:19:08;;;;;;;;;;;;;;;;;;5031739;28;20326;-40
2022/11/25 02:21:34;;;;;;;;;;;;;;;;;;5031592;28;19917;-40
2022/11/25 02:24:00;;;;;;;;;;;;;;;;;;5030365;28;19954;-40
2022/11/25 02:26:25;;;;;;;;;;;;;;;;;;5030283;28;20007;-40
2022/11/25 02:28:50;;;;;;;;;;;;;;;;;;5031657;28;19917;-40
2022/11/25 02:31:16;;;;;;;;;;;;;;;;;;5030312;28;20374;-40
2022/11/25 02:33:41;;;;;;;;;;;;;;;;;;5030188;28;19912;-40
2022/11/25 02:36:06;;;;;;;;;;;;;;;;;;5031553;28;19959;-40
2022/11/25 02:38:32;;;;;;;;;;;;;;;;;;5031794;28;19949;-40
2022/11/25 02:40:57;;;;;;;;;;;;;;;;;;5031537;28;20078;-40
2022/11/25 02:43:22;;;;;;;;;;;;;;;;;;5033991;28;19909;-42
2022/11/25 02:45:49;;;;;;;;;;;;;;;;;;5034275;28;19913;-40
2022/11/25 02:48:15;;;;;;;;;;;;;;;;;;5034039;28;19909;-40
2022/11/25 02:50:40;;;;;;;;;;;;;;;;;;5034047;28;20020;-40
2022/11/25 02:53:05;;;;;;;;;;;;;;;;;;5033992;28;19913;-40
2022/11/25 02:55:31;;;;;;;;;;;;;;;;;;5035071;28;19913;-40
2022/11/25 02:57:56;;;;;;;;;;;;;;;;;;5033999;28;19916;-40
2022/11/25 03:00:21;;;;;;;;;;;;;;;;;;5033666;28;20413;-40
2022/11/25 03:02:47;;;;;;;;;;;;;;;;;;5033833;28;19945;-40
2022/11/25 03:05:12;;;;;;;;;;;;;;;;;;5035174;28;19909;-40
2022/11/25 03:07:38;;;;;;;;;;;;;;;;;;5034953;28;19920;-40
2022/11/25 03:10:03;;;;;;;;;;;;;;;;;;5033684;28;19909;-40
2022/11/25 03:12:29;;;;;;;;;;;;;;;;;;5033560;28;19991;-40
2022/11/25 03:14:56;;;;;;;;;;;;;;;;;;5033517;28;19971;-40
2022/11/25 03:17:21;;;;;;;;;;;;;;;;;;5033519;28;19917;-40
2022/11/25 03:19:46;;;;;;;;;;;;;;;;;;5035064;28;19909;-40
2022/11/25 03:22:11;;;;;;;;;;;;;;;;;;5034658;28;20326;-40
2022/11/25 03:24:37;;;;;;;;;;;;;;;;;;5033332;28;20359;-40
2022/11/25 03:27:02;;;;;;;;;;;;;;;;;;5033394;28;19935;-40
2022/11/25 03:29:28;;;;;;;;;;;;;;;;;;5034537;28;19932;-40
2022/11/25 03:31:54;;;;;;;;;;;;;;;;;;5033275;28;20347;-40
2022/11/25 03:34:19;;;;;;;;;;;;;;;;;;5033186;28;19904;-40
2022/11/25 03:36:44;;;;;;;;;;;;;;;;;;5033193;28;19913;-41
2022/11/25 03:39:09;;;;;;;;;;;;;;;;;;5034463;28;20015;-40
2022/11/25 03:41:36;;;;;;;;;;;;;;;;;;5033028;28;19960;-40
2022/11/25 03:44:01;;;;;;;;;;;;;;;;;;5034292;28;19959;-40
2022/11/25 03:46:26;;;;;;;;;;;;;;;;;;5032917;28;20398;-40
2022/11/25 03:48:53;;;;;;;;;;;;;;;;;;5032924;28;19936;-40
2022/11/25 03:51:18;;;;;;;;;;;;;;;;;;5032770;28;20367;-40
2022/11/25 03:53:45;;;;;;;;;;;;;;;;;;5032219;28;19956;-40
2022/11/25 03:56:12;;;;;;;;;;;;;;;;;;5032899;28;19913;-40
2022/11/25 03:58:37;;;;;;;;;;;;;;;;;;5032733;28;19940;-41
2022/11/25 04:01:04;;;;;;;;;;;;;;;;;;5032863;28;19917;-40
2022/11/25 04:03:29;;;;;;;;;;;;;;;;;;5032568;28;19908;-40
2022/11/25 04:05:54;;;;;;;;;;;;;;;;;;5033986;28;20364;-40
2022/11/25 04:08:20;;;;;;;;;;;;;;;;;;5032606;28;19909;-41
2022/11/25 04:10:45;;;;;;;;;;;;;;;;;;5032624;28;19982;-40
2022/11/25 04:13:10;;;;;;;;;;;;;;;;;;5032520;28;19909;-40
2022/11/25 04:15:39;;;;;;;;;;;;;;;;;;5032417;28;19954;-40
2022/11/25 04:18:05;;;;;;;;;;;;;;;;;;5032561;28;20275;-40
2022/11/25 04:20:31;;;;;;;;;;;;;;;;;;5032240;28;20470;-40
2022/11/25 04:23:01;;;;;;;;;;;;;;;;;;5032378;28;19913;-40
2022/11/25 04:25:26;;;;;;;;;;;;;;;;;;5032224;28;20000;-40
2022/11/25 04:27:52;;;;;;;;;;;;;;;;;;5032242;28;20245;-40
2022/11/25 04:30:23;;;;;;;;;;;;;;;;;;5032168;28;20375;-41
2022/11/25 04:32:49;;;;;;;;;;;;;;;;;;5032203;28;20002;-41
2022/11/25 04:35:14;;;;;;;;;;;;;;;;;;5032066;28;20335;-40
2022/11/25 04:37:44;;;;;;;;;;;;;;;;;;5032172;28;19909;-40
2022/11/25 04:40:09;;;;;;;;;;;;;;;;;;5032079;28;19905;-40
2022/11/25 04:42:35;;;;;;;;;;;;;;;;;;5033166;28;19921;-40
2022/11/25 04:45:03;;;;;;;;;;;;;;;;;;5031956;28;19928;-40
2022/11/25 04:47:28;;;;;;;;;;;;;;;;;;5033126;28;20007;-40
2022/11/25 04:49:54;;;;;;;;;;;;;;;;;;5031755;28;19925;-40
2022/11/25 04:52:19;;;;;;;;;;;;;;;;;;5033229;28;19912;-40
2022/11/25 04:54:44;;;;;;;;;;;;;;;;;;5033098;28;19905;-40
2022/11/25 04:57:09;;;;;;;;;;;;;;;;;;5031792;28;19920;-40
2022/11/25 04:59:38;;;;;;;;;;;;;;;;;;5031589;28;19927;-40
2022/11/25 05:02:04;;;;;;;;;;;;;;;;;;5031528;28;19924;-40
2022/11/25 05:04:37;;;;;;;;;;;;;;;;;;5031294;28;20008;-40
2022/11/25 05:07:03;;;;;;;;;;;;;;;;;;5031905;28;20003;-40
2022/11/25 05:09:28;;;;;;;;;;;;;;;;;;5032734;28;19909;-40
2022/11/25 05:12:14;;;;;;;;;;;;;;;;;;5032770;28;20008;-40
2022/11/25 05:14:39;;;;;;;;;;;;;;;;;;5031285;28;20015;-40
2022/11/25 05:17:04;;;;;;;;;;;;;;;;;;5032539;28;20348;-40
2022/11/25 05:19:30;;;;;;;;;;;;;;;;;;5031329;28;19960;-40
2022/11/25 05:21:55;;;;;;;;;;;;;;;;;;5031208;28;19917;-40
2022/11/25 05:24:21;;;;;;;;;;;;;;;;;;5031081;28;19913;-40
2022/11/25 05:26:49;;;;;;;;;;;;;;;;;;5031154;28;19909;-40
2022/11/25 05:29:14;;;;;;;;;;;;;;;;;;5032710;28;19927;-40
2022/11/25 05:31:39;;;;;;;;;;;;;;;;;;5032540;28;20449;-40
2022/11/25 05:34:05;;;;;;;;;;;;;;;;;;5030987;28;19931;-41
2022/11/25 05:36:30;;;;;;;;;;;;;;;;;;5031069;28;19913;-40
2022/11/25 05:38:55;;;;;;;;;;;;;;;;;;5030911;28;19968;-40
2022/11/25 05:41:34;;;;;;;;;;;;;;;;;;5030853;28;19927;-40
2022/11/25 05:44:00;;;;;;;;;;;;;;;;;;5030892;28;20007;-40
2022/11/25 05:46:27;;;;;;;;;;;;;;;;;;5030781;28;19971;-40
2022/11/25 05:48:54;;;;;;;;;;;;;;;;;;5032205;28;19947;-40
2022/11/25 05:51:20;;;;;;;;;;;;;;;;;;5030669;28;20363;-40
2022/11/25 05:53:45;;;;;;;;;;;;;;;;;;5030729;28;20365;-40
2022/11/25 05:56:11;;;;;;;;;;;;;;;;;;5030744;28;19915;-40
2022/11/25 05:58:55;;;;;;;;;;;;;;;;;;5032017;28;19971;-40
2022/11/25 06:01:24;;;;;;;;;;;;;;;;;;5030599;28;20016;-40
2022/11/25 06:03:49;;;;;;;;;;;;;;;;;;5030724;28;20004;-40
2022/11/25 06:06:15;;;;;;;;;;;;;;;;;;5030596;28;20014;-40
2022/11/25 06:08:40;;;;;;;;;;;;;;;;;;5030518;28;19940;-40
2022/11/25 06:11:06;;;;;;;;;;;;;;;;;;5030594;28;19909;-40
2022/11/25 06:13:32;;;;;;;;;;;;;;;;;;5030411;28;19971;-40
2022/11/25 06:15:57;;;;;;;;;;;;;;;;;;5031257;28;19915;-40
2022/11/25 06:18:22;;;;;;;;;;;;;;;;;;5030447;28;19913;-40
2022/11/25 06:20:48;;;;;;;;;;;;;;;;;;5031598;28;20532;-40
2022/11/25 06:23:13;;;;;;;;;;;;;;;;;;5030420;28;20000;-40
2022/11/25 06:25:38;;;;;;;;;;;;;;;;;;5013987;28;19917;-40
2022/11/25 06:28:04;;;;;;;;;;;;;;;;;;5030329;28;19904;-40
2022/11/25 06:30:30;;;;;;;;;;;;;;;;;;5030344;28;19923;-51
2022/11/25 06:33:12;;;;;;;;;;;;;;;;;;5030336;28;19988;-40
2022/11/25 06:35:39;;;;;;;;;;;;;;;;;;5030241;28;20306;-40
2022/11/25 06:38:05;;;;;;;;;;;;;;;;;;5030352;28;19905;-40
2022/11/25 06:40:30;;;;;;;;;;;;;;;;;;5031473;28;19913;-40
2022/11/25 06:42:55;;;;;;;;;;;;;;;;;;5031250;28;19909;-40
2022/11/25 06:45:21;;;;;;;;;;;;;;;;;;5031402;28;20030;-40
2022/11/25 06:47:46;;;;;;;;;;;;;;;;;;5031578;28;19905;-40
2022/11/25 06:50:11;;;;;;;;;;;;;;;;;;5031190;28;20294;-40
2022/11/25 06:52:37;;;;;;;;;;;;;;;;;;5031343;28;19912;-40
2022/11/25 06:55:02;;;;;;;;;;;;;;;;;;5031443;28;19909;-40
2022/11/25 06:57:27;;;;;;;;;;;;;;;;;;5031266;28;19909;-40
2022/11/25 06:59:53;;;;;;;;;;;;;;;;;;5031442;28;19909;-40
2022/11/25 07:02:18;;;;;;;;;;;;;;;;;;5031519;28;19919;-40
2022/11/25 07:04:44;;;;;;;;;;;;;;;;;;5030009;28;19913;-40
2022/11/25 07:07:09;;;;;;;;;;;;;;;;;;5031398;28;19912;-40
2022/11/25 07:09:34;;;;;;;;;;;;;;;;;;5031098;28;19912;-40
2022/11/25 07:12:00;;;;;;;;;;;;;;;;;;5031199;28;19951;-40
2022/11/25 07:14:25;;;;;;;;;;;;;;;;;;5031229;28;19913;-40
2022/11/25 07:16:50;;;;;;;;;;;;;;;;;;5031098;28;19924;-40
2022/11/25 07:19:15;;;;;;;;;;;;;;;;;;5031538;28;19909;-40
2022/11/25 07:21:42;;;;;;;;;;;;;;;;;;5031291;28;19920;-40
2022/11/25 07:24:07;;;;;;;;;;;;;;;;;;5031156;28;19912;-40
2022/11/25 07:26:33;;;;;;;;;;;;;;;;;;5031080;28;20003;-42
2022/11/25 07:28:58;;;;;;;;;;;;;;;;;;5032802;28;19962;-40
2022/11/25 07:31:23;;;;;;;;;;;;;;;;;;5034514;28;19905;-40
2022/11/25 07:33:49;;;;;;;;;;;;;;;;;;5034869;28;19909;-40
2022/11/25 07:36:14;;;;;;;;;;;;;;;;;;5033276;28;20278;-40
2022/11/25 07:38:39;;;;;;;;;;;;;;;;;;5034718;28;19928;-40
2022/11/25 07:41:05;;;;;;;;;;;;;;;;;;5034308;28;20006;-40
2022/11/25 07:43:30;;;;;;;;;;;;;;;;;;5034418;28;19920;-40
2022/11/25 07:45:58;;;;;;;;;;;;;;;;;;5033356;28;19909;-40
2022/11/25 07:48:23;;;;;;;;;;;;;;;;;;5034122;28;19913;-40
2022/11/25 07:50:49;;;;;;;;;;;;;;;;;;5034666;28;19931;-40
2022/11/25 07:53:14;;;;;;;;;;;;;;;;;;5034212;28;19913;-40
2022/11/25 07:55:40;;;;;;;;;;;;;;;;;;5033190;28;19909;-40
2022/11/25 07:58:05;;;;;;;;;;;;;;;;;;5034468;28;19915;-40
2022/11/25 08:00:30;;;;;;;;;;;;;;;;;;5033924;28;20374;-40
2022/11/25 08:02:55;;;;;;;;;;;;;;;;;;5034327;28;20326;-40
2022/11/25 08:05:21;;;;;;;;;;;;;;;;;;5034121;28;20049;-40
2022/11/25 08:07:46;;;;;;;;;;;;;;;;;;5034197;28;20409;-40
2022/11/25 08:10:11;;;;;;;;;;;;;;;;;;5032717;28;19905;-40
2022/11/25 08:12:37;;;;;;;;;;;;;;;;;;5033918;28;19909;-40
2022/11/25 08:15:02;;;;;;;;;;;;;;;;;;5033799;28;19905;-40
2022/11/25 08:17:27;;;;;;;;;;;;;;;;;;5033806;28;19920;-40
2022/11/25 08:19:54;;;;;;;;;;;;;;;;;;5033959;28;19905;-40
2022/11/25 08:22:19;;;;;;;;;;;;;;;;;;5033557;28;20010;-40
2022/11/25 08:24:45;;;;;;;;;;;;;;;;;;5033588;28;19999;-40
2022/11/25 08:27:10;;;;;;;;;;;;;;;;;;5033889;28;19912;-40
2022/11/25 08:29:36;;;;;;;;;;;;;;;;;;5033484;28;20310;-40
2022/11/25 08:32:01;;;;;;;;;;;;;;;;;;5033482;28;19933;-40
2022/11/25 08:34:26;;;;;;;;;;;;;;;;;;5033478;28;20410;-40
2022/11/25 08:36:58;;;;;;;;;;;;;;;;;;5032090;28;19916;-40
2022/11/25 08:39:23;;;;;;;;;;;;;;;;;;5032834;28;20287;-40
2022/11/25 08:41:49;;;;;;;;;;;;;;;;;;5033555;28;20495;-40
2022/11/25 08:44:14;;;;;;;;;;;;;;;;;;5033256;28;19935;-40
2022/11/25 08:46:39;;;;;;;;;;;;;;;;;;5033268;28;19999;-40
2022/11/25 08:49:05;;;;;;;;;;;;;;;;;;5033246;28;19917;-40
2022/11/25 08:51:30;;;;;;;;;;;;;;;;;;5033293;28;20000;-40
2022/11/25 08:53:55;;;;;;;;;;;;;;;;;;5033075;28;19916;-40
2022/11/25 08:56:21;;;;;;;;;;;;;;;;;;5032953;28;19968;-40
2022/11/25 08:58:48;;;;;;;;;;;;;;;;;;5031620;28;19967;-40
2022/11/25 09:01:13;;;;;;;;;;;;;;;;;;5032904;28;20427;-40
2022/11/25 09:03:39;;;;;;;;;;;;;;;;;;5032933;28;19920;-40
2022/11/25 09:06:04;;;;;;;;;;;;;;;;;;5032821;28;19951;-40
2022/11/25 09:08:30;;;;;;;;;;;;;;;;;;5032682;28;19913;-40
2022/11/25 09:10:55;;;;;;;;;;;;;;;;;;5032731;28;19905;-40
2022/11/25 09:13:20;;;;;;;;;;;;;;;;;;5032953;28;19921;-40
2022/11/25 09:15:46;;;;;;;;;;;;;;;;;;5032558;28;19912;-42
2022/11/25 09:18:11;;;;;;;;;;;;;;;;;;5032569;28;19920;-40
2022/11/25 09:20:36;;;;;;;;;;;;;;;;;;5032818;28;20023;-40
2022/11/25 09:23:02;;;;;;;;;;;;;;;;;;5032561;28;19917;-40
2022/11/25 09:25:27;;;;;;;;;;;;;;;;;;5032823;28;19909;-40
2022/11/25 09:27:52;;;;;;;;;;;;;;;;;;5032462;28;19913;-40
2022/11/25 09:30:17;;;;;;;;;;;;;;;;;;5032496;28;19905;-40
2022/11/25 09:32:43;;;;;;;;;;;;;;;;;;5032468;28;20008;-40
2022/11/25 09:35:08;;;;;;;;;;;;;;;;;;5032303;28;19909;-40
2022/11/25 09:37:33;;;;;;;;;;;;;;;;;;5032290;28;20007;-40
2022/11/25 09:39:59;;;;;;;;;;;;;;;;;;5032220;28;19905;-40
2022/11/25 09:47:52;;;;;;;;;;;;;;;;;;5032449;28;19913;-40
2022/11/25 09:50:17;;;;;;;;;;;;;;;;;;5014098;28;19917;-40
2022/11/25 09:52:42;;;;;;;;;;;;;;;;;;5031475;28;20674;-40
2022/11/25 09:55:09;;;;;;;;;;;;;;;;;;5032116;28;19909;-40
2022/11/25 09:57:34;;;;;;;;;;;;;;;;;;5032309;28;19909;-41
2022/11/25 09:59:59;;;;;;;;;;;;;;;;;;5032058;28;19959;-40
2022/11/25 10:02:25;;;;;;;;;;;;;;;;;;5031705;28;19951;-40
2022/11/25 10:04:52;;;;;;;;;;;;;;;;;;5031970;28;19988;-41
2022/11/25 10:07:17;;;;;;;;;;;;;;;;;;5031939;28;19940;-40
2022/11/25 10:09:43;;;;;;;;;;;;;;;;;;5031710;28;20399;-40
2022/11/25 10:12:08;;;;;;;;;;;;;;;;;;5031867;28;19909;-40
2022/11/25 10:14:33;;;;;;;;;;;;;;;;;;5030519;28;19948;-40
2022/11/25 10:16:59;;;;;;;;;;;;;;;;;;5030512;28;20287;-40
2022/11/25 10:19:24;;;;;;;;;;;;;;;;;;5031715;28;19934;-40
2022/11/25 10:21:49;;;;;;;;;;;;;;;;;;5031848;28;19917;-40
2022/11/25 10:24:16;;;;;;;;;;;;;;;;;;5031767;28;19940;-41
2022/11/25 10:26:42;;;;;;;;;;;;;;;;;;5031674;28;20004;-40
2022/11/25 10:29:07;;;;;;;;;;;;;;;;;;5030678;28;20035;-40
2022/11/25 10:31:32;;;;;;;;;;;;;;;;;;5031834;28;19913;-40
2022/11/25 10:33:58;;;;;;;;;;;;;;;;;;5031595;28;19958;-40
2022/11/25 10:36:23;;;;;;;;;;;;;;;;;;5031584;28;19909;-41
2022/11/25 10:38:49;;;;;;;;;;;;;;;;;;5030313;28;19905;-40
2022/11/25 10:41:14;;;;;;;;;;;;;;;;;;5031506;28;19987;-40
2022/11/25 10:43:39;;;;;;;;;;;;;;;;;;5031681;28;19948;-40
2022/11/25 10:46:05;;;;;;;;;;;;;;;;;;5031501;28;20260;-40
2022/11/25 10:48:31;;;;;;;;;;;;;;;;;;5031480;28;19912;-41
2022/11/25 10:50:56;;;;;;;;;;;;;;;;;;5031494;28;20346;-40
2022/11/25 10:53:22;;;;;;;;;;;;;;;;;;5031439;28;19905;-40
2022/11/25 10:55:47;;;;;;;;;;;;;;;;;;5031413;28;20287;-40
2022/11/25 10:58:12;;;;;;;;;;;;;;;;;;5031529;28;19955;-40
2022/11/25 11:00:37;;;;;;;;;;;;;;;;;;5031217;28;19909;-40
2022/11/25 11:03:03;;;;;;;;;;;;;;;;;;5033239;28;20003;-40
2022/11/25 11:05:28;;;;;;;;;;;;;;;;;;5033709;28;19995;-39
2022/11/25 11:07:54;;;;;;;;;;;;;;;;;;5035136;28;19906;-40
2022/11/25 11:10:19;;;;;;;;;;;;;;;;;;5035374;28;19913;-40
2022/11/25 11:12:44;;;;;;;;;;;;;;;;;;5034891;28;19996;-40
2022/11/25 11:15:09;;;;;;;;;;;;;;;;;;5035026;28;19909;-40
2022/11/25 11:17:35;;;;;;;;;;;;;;;;;;5034883;28;19905;-40
2022/11/25 11:20:00;;;;;;;;;;;;;;;;;;5034911;28;20359;-40
2022/11/25 11:22:26;;;;;;;;;;;;;;;;;;5034633;28;20279;-40
2022/11/25 11:24:51;;;;;;;;;;;;;;;;;;5034769;28;19913;-42
2022/11/25 11:27:17;;;;;;;;;;;;;;;;;;5035012;28;20055;-40
2022/11/25 11:29:42;;;;;;;;;;;;;;;;;;5034625;28;19952;-41
2022/11/25 11:32:07;;;;;;;;;;;;;;;;;;5034853;28;19905;-40
2022/11/25 11:34:33;;;;;;;;;;;;;;;;;;5092340;23;20021;-36
2022/11/25 11:36:58;;;;;;;;;;;;;;;;;;4995446;28;20347;-36
2022/11/25 11:39:23;;;;;;;;;;;;;;;;;;4995244;28;20375;-36
2022/11/25 11:41:48;;;;;;;;;;;;;;;;;;4995236;28;19945;-40
2022/11/25 11:44:14;;;;;;;;;;;;;;;;;;4995413;28;19931;-37
2022/11/25 11:46:39;;;;;;;;;;;;;;;;;;4995016;28;20393;-40
2022/11/25 11:49:04;;;;;;;;;;;;;;;;;;4995294;28;19967;-40
2022/11/25 11:51:30;;;;;;;;;;;;;;;;;;4994924;28;20314;-41
2022/11/25 11:53:55;;;;;;;;;;;;;;;;;;4995069;28;19945;-38
2022/11/25 11:56:21;;;;;;;;;;;;;;;;;;4994986;28;20275;-40
2022/11/25 11:58:46;;;;;;;;;;;;;;;;;;4994802;28;19913;-40
2022/11/25 12:01:11;;;;;;;;;;;;;;;;;;4994826;28;19913;-40
2022/11/25 12:03:36;;;;;;;;;;;;;;;;;;4994733;28;19910;-40
2022/11/25 12:06:03;;;;;;;;;;;;;;;;;;4994756;28;19909;-40
2022/11/25 12:08:28;;;;;;;;;;;;;;;;;;4994666;28;19910;-40
2022/11/25 12:10:54;;;;;;;;;;;;;;;;;;4994664;28;20386;-40
2022/11/25 12:13:19;;;;;;;;;;;;;;;;;;4994758;28;19910;-37
2022/11/25 12:15:45;;;;;;;;;;;;;;;;;;4993718;28;19905;-37
2022/11/25 12:18:10;;;;;;;;;;;;;;;;;;4993242;28;19929;-38
2022/11/25 12:20:36;;;;;;;;;;;;;;;;;;4994439;28;19909;-37
2022/11/25 12:23:01;;;;;;;;;;;;;;;;;;4993232;28;20318;-37
2022/11/25 12:25:26;;;;;;;;;;;;;;;;;;4994234;28;19921;-37
2022/11/25 12:27:52;;;;;;;;;;;;;;;;;;4994324;28;20406;-37
2022/11/25 12:30:17;;;;;;;;;;;;;;;;;;4994334;28;20000;-37
2022/11/25 12:32:43;;;;;;;;;;;;;;;;;;4994238;28;20287;-37
2022/11/25 12:35:08;;;;;;;;;;;;;;;;;;4994179;28;19924;-37
2022/11/25 12:37:33;;;;;;;;;;;;;;;;;;4994119;28;20335;-37
2022/11/25 12:39:59;;;;;;;;;;;;;;;;;;4994434;28;19913;-37
2022/11/25 12:42:24;;;;;;;;;;;;;;;;;;4994052;28;20363;-38
2022/11/25 12:44:50;;;;;;;;;;;;;;;;;;4993928;28;19913;-37
2022/11/25 12:47:15;;;;;;;;;;;;;;;;;;4993945;28;20004;-37
2022/11/25 12:49:41;;;;;;;;;;;;;;;;;;4993828;28;19916;-37
2022/11/25 12:52:06;;;;;;;;;;;;;;;;;;4993924;28;19913;-38
2022/11/25 12:54:32;;;;;;;;;;;;;;;;;;4993694;28;19914;-38
2022/11/25 12:56:57;;;;;;;;;;;;;;;;;;4993981;28;19914;-37
2022/11/25 12:59:22;;;;;;;;;;;;;;;;;;4993897;28;20003;-38
2022/11/25 13:01:48;;;;;;;;;;;;;;;;;;4992294;28;19917;-38
2022/11/25 13:04:14;;;;;;;;;;;;;;;;;;4993774;28;19906;-37
2022/11/25 13:06:40;;;;;;;;;;;;;;;;;;4993690;28;19913;-38
2022/11/25 13:09:05;;;;;;;;;;;;;;;;;;4993600;28;20057;-37
2022/11/25 13:11:31;;;;;;;;;;;;;;;;;;4993501;28;19918;-38
2022/11/25 13:13:56;;;;;;;;;;;;;;;;;;4993767;28;19906;-37
2022/11/25 13:16:22;;;;;;;;;;;;;;;;;;4993413;28;20359;-37
2022/11/25 13:18:48;;;;;;;;;;;;;;;;;;4993419;28;19906;-37
2022/11/25 13:21:13;;;;;;;;;;;;;;;;;;4993206;28;19918;-38
2022/11/25 13:23:39;;;;;;;;;;;;;;;;;;4993255;28;19912;-37
2022/11/25 13:26:04;;;;;;;;;;;;;;;;;;4993233;28;19909;-38
2022/11/25 13:28:30;;;;;;;;;;;;;;;;;;4993373;28;19909;-38
2022/11/25 13:30:55;;;;;;;;;;;;;;;;;;4993226;28;19914;-37
2022/11/25 13:33:21;;;;;;;;;;;;;;;;;;4993159;28;20013;-37
2022/11/25 13:35:47;;;;;;;;;;;;;;;;;;4992859;28;19957;-37
2022/11/25 13:38:12;;;;;;;;;;;;;;;;;;4993072;28;20351;-37
2022/11/25 13:40:38;;;;;;;;;;;;;;;;;;4993204;28;19913;-37
2022/11/25 13:43:04;;;;;;;;;;;;;;;;;;4992919;28;19956;-37
2022/11/25 13:45:29;;;;;;;;;;;;;;;;;;4993102;28;19909;-37
2022/11/25 13:47:54;;;;;;;;;;;;;;;;;;4993107;28;19932;-38
2022/11/25 13:50:21;;;;;;;;;;;;;;;;;;4992812;28;19917;-39
2022/11/25 13:52:46;;;;;;;;;;;;;;;;;;4992856;28;19964;-40
2022/11/25 13:55:12;;;;;;;;;;;;;;;;;;4992823;28;20015;-40
2022/11/25 13:57:37;;;;;;;;;;;;;;;;;;4992673;28;20252;-40
2022/11/25 14:00:03;;;;;;;;;;;;;;;;;;4992791;28;20000;-40
2022/11/25 14:02:40;;;;;;;;;;;;;;;;;;4992554;28;19976;-40
2022/11/25 14:05:06;;;;;;;;;;;;;;;;;;4992676;28;19917;-39
2022/11/25 14:07:32;;;;;;;;;;;;;;;;;;4992550;28;19906;-40
2022/11/25 14:09:57;;;;;;;;;;;;;;;;;;4992682;28;19914;-40
2022/11/25 14:12:22;;;;;;;;;;;;;;;;;;4992600;28;19906;-40
2022/11/25 14:14:48;;;;;;;;;;;;;;;;;;4992795;28;19967;-40
2022/11/25 14:17:13;;;;;;;;;;;;;;;;;;4992432;28;19953;-37
2022/11/25 14:19:38;;;;;;;;;;;;;;;;;;4992562;28;20007;-38
2022/11/25 14:22:04;;;;;;;;;;;;;;;;;;4992721;28;20056;-38
2022/11/25 14:24:29;;;;;;;;;;;;;;;;;;4992312;28;20000;-38
2022/11/25 14:26:55;;;;;;;;;;;;;;;;;;4991218;28;19910;-37
2022/11/25 14:29:20;;;;;;;;;;;;;;;;;;4992442;28;19910;-38
2022/11/25 14:31:45;;;;;;;;;;;;;;;;;;4992349;28;20004;-37
2022/11/25 14:34:11;;;;;;;;;;;;;;;;;;4992374;28;19918;-38
2022/11/25 14:36:36;;;;;;;;;;;;;;;;;;4992171;28;19937;-38
2022/11/25 14:39:03;;;;;;;;;;;;;;;;;;4995899;28;19956;-38
2022/11/25 14:41:28;;;;;;;;;;;;;;;;;;4995107;28;19980;-40
2022/11/25 14:43:54;;;;;;;;;;;;;;;;;;4996281;28;19949;-40
2022/11/25 14:46:20;;;;;;;;;;;;;;;;;;5011259;28;19906;-37
2022/11/25 14:48:45;;;;;;;;;;;;;;;;;;4994834;28;20020;-38
2022/11/25 14:51:11;;;;;;;;;;;;;;;;;;4996211;28;20323;-37
2022/11/25 14:53:36;;;;;;;;;;;;;;;;;;4996243;28;19933;-37
2022/11/25 14:56:02;;;;;;;;;;;;;;;;;;4996219;28;19929;-40
2022/11/25 14:58:28;;;;;;;;;;;;;;;;;;4994803;28;19909;-40
2022/11/25 15:00:53;;;;;;;;;;;;;;;;;;4995938;28;20374;-37
2022/11/25 15:03:19;;;;;;;;;;;;;;;;;;4996016;28;19909;-40
2022/11/25 15:05:44;;;;;;;;;;;;;;;;;;4995738;28;20421;-40
2022/11/25 15:08:10;;;;;;;;;;;;;;;;;;4995803;28;19918;-40
2022/11/25 15:10:35;;;;;;;;;;;;;;;;;;4995800;28;19984;-40
2022/11/25 15:13:01;;;;;;;;;;;;;;;;;;4995776;28;19936;-40
2022/11/25 15:15:27;;;;;;;;;;;;;;;;;;4995663;28;20291;-40
2022/11/25 15:17:54;;;;;;;;;;;;;;;;;;4995642;28;19921;-40
2022/11/25 15:20:22;;;;;;;;;;;;;;;;;;4995663;28;20436;-40
2022/11/25 15:22:47;;;;;;;;;;;;;;;;;;4995296;28;19918;-40
2022/11/25 15:25:13;;;;;;;;;;;;;;;;;;4995502;28;20418;-40
2022/11/25 15:27:38;;;;;;;;;;;;;;;;;;4995518;28;19913;-41
2022/11/25 15:30:04;;;;;;;;;;;;;;;;;;4995391;28;19941;-40
2022/11/25 15:32:30;;;;;;;;;;;;;;;;;;4995869;28;19909;-41
2022/11/25 15:34:55;;;;;;;;;;;;;;;;;;4995192;28;19977;-37
2022/11/25 15:37:21;;;;;;;;;;;;;;;;;;4995616;28;19972;-38
2022/11/25 15:39:46;;;;;;;;;;;;;;;;;;4995519;28;20347;-38
2022/11/25 15:42:12;;;;;;;;;;;;;;;;;;4995387;28;20061;-38
2022/11/25 15:44:37;;;;;;;;;;;;;;;;;;4994967;28;19916;-38
2022/11/25 15:47:03;;;;;;;;;;;;;;;;;;4995203;28;19914;-38
2022/11/25 15:49:29;;;;;;;;;;;;;;;;;;4993873;28;20390;-38
2022/11/25 15:51:58;;;;;;;;;;;;;;;;;;4995042;28;19918;-38
2022/11/25 15:54:24;;;;;;;;;;;;;;;;;;4995009;28;19959;-38
2022/11/25 15:56:50;;;;;;;;;;;;;;;;;;4994951;28;19914;-38
2022/11/25 15:59:16;;;;;;;;;;;;;;;;;;4995196;28;19927;-38
2022/11/25 16:01:41;;;;;;;;;;;;;;;;;;4994739;28;20252;-38
2022/11/25 16:04:07;;;;;;;;;;;;;;;;;;4994683;28;20308;-38
2022/11/25 16:06:33;;;;;;;;;;;;;;;;;;4994755;28;19910;-38
2022/11/25 16:08:59;;;;;;;;;;;;;;;;;;4993416;28;19910;-37
2022/11/25 16:11:31;;;;;;;;;;;;;;;;;;4994692;28;19932;-38
2022/11/25 16:13:57;;;;;;;;;;;;;;;;;;4994663;28;19913;-37
2022/11/25 16:16:23;;;;;;;;;;;;;;;;;;4994635;28;20039;-38
2022/11/25 16:18:48;;;;;;;;;;;;;;;;;;4994457;28;19914;-38
2022/11/25 16:21:14;;;;;;;;;;;;;;;;;;5009478;28;19932;-38
2022/11/25 16:23:40;;;;;;;;;;;;;;;;;;4994520;28;20419;-38
2022/11/25 16:26:05;;;;;;;;;;;;;;;;;;5009386;28;20342;-38
2022/11/25 16:28:31;;;;;;;;;;;;;;;;;;4994213;28;19913;-38
2022/11/25 16:30:57;;;;;;;;;;;;;;;;;;4994386;28;19905;-38
2022/11/25 16:33:23;;;;;;;;;;;;;;;;;;4994291;28;19910;-37
2022/11/25 16:35:49;;;;;;;;;;;;;;;;;;4993994;28;19928;-38
2022/11/25 16:38:14;;;;;;;;;;;;;;;;;;4994181;28;19914;-37
2022/11/25 16:40:39;;;;;;;;;;;;;;;;;;4994072;28;19910;-38
2022/11/25 16:43:05;;;;;;;;;;;;;;;;;;4994115;28;19926;-38